createdAt,value
2023-01-31T00:01:10.594Z,74.71
2023-01-31T00:03:43.292Z,74.68
2023-01-31T00:06:18.153Z,74.62
2023-01-31T00:08:50.505Z,74.68
2023-01-31T00:11:28.832Z,74.56
2023-01-31T00:14:01.262Z,74.75
2023-01-31T00:16:32.245Z,74.76
2023-01-31T00:19:03.441Z,74.50
2023-01-31T00:21:34.942Z,74.48
2023-01-31T00:24:06.425Z,74.73
2023-01-31T00:26:38.070Z,74.71
2023-01-31T00:29:09.059Z,74.65
2023-01-31T00:31:41.441Z,74.85
2023-01-31T00:34:14.019Z,74.60
2023-01-31T00:36:47.225Z,74.70
2023-01-31T00:39:18.132Z,74.64
2023-01-31T00:41:49.484Z,74.78
2023-01-31T00:44:20.564Z,74.81
2023-01-31T00:46:51.567Z,74.77
2023-01-31T00:49:22.535Z,74.52
2023-01-31T00:51:53.494Z,74.69
2023-01-31T00:54:24.818Z,74.77
2023-01-31T00:56:56.162Z,74.83
2023-01-31T00:59:27.630Z,74.65
2023-01-31T01:01:58.609Z,74.84
2023-01-31T01:04:29.607Z,74.78
2023-01-31T01:07:00.708Z,74.65
2023-01-31T01:09:32.435Z,74.61
2023-01-31T01:12:04.083Z,74.68
2023-01-31T01:14:35.574Z,74.88
2023-01-31T01:17:08.193Z,74.56
2023-01-31T01:19:39.660Z,74.31
2023-01-31T01:22:16.291Z,74.46
2023-01-31T01:24:47.702Z,74.34
2023-01-31T01:27:19.222Z,74.45
2023-01-31T01:29:50.367Z,74.53
2023-01-31T01:32:21.410Z,74.48
2023-01-31T01:34:52.429Z,74.42
2023-01-31T01:37:23.491Z,74.42
2023-01-31T01:39:55.019Z,74.49
2023-01-31T01:42:28.688Z,74.22
2023-01-31T01:45:01.564Z,74.47
2023-01-31T01:47:44.725Z,74.41
2023-01-31T01:50:23.714Z,74.55
2023-01-31T01:52:58.235Z,74.40
2023-01-31T01:55:34.499Z,74.66
2023-01-31T01:58:11.022Z,74.48
2023-01-31T02:00:42.398Z,74.96
2023-01-31T02:03:13.782Z,74.59
2023-01-31T02:05:47.125Z,74.76
2023-01-31T02:08:21.390Z,74.85
2023-01-31T02:10:57.685Z,74.53
2023-01-31T02:13:29.744Z,75.05
2023-01-31T02:16:01.347Z,75.14
2023-01-31T02:18:32.555Z,75.06
2023-01-31T02:21:33.761Z,74.58
2023-01-31T02:24:36.965Z,75.01
2023-01-31T02:27:35.631Z,75.02
2023-01-31T02:30:34.966Z,75.02
2023-01-31T02:33:20.094Z,74.82
2023-01-31T02:35:59.982Z,75.23
2023-01-31T02:38:46.085Z,75.04
2023-01-31T02:41:25.012Z,75.00
2023-01-31T02:44:19.952Z,75.06
2023-01-31T02:46:57.675Z,74.98
2023-01-31T02:49:39.662Z,74.84
2023-01-31T02:52:26.216Z,74.61
2023-01-31T02:55:28.757Z,74.92
2023-01-31T02:58:01.682Z,74.82
2023-01-31T03:00:37.850Z,74.93
2023-01-31T03:03:14.888Z,74.90
2023-01-31T03:05:45.837Z,74.85
2023-01-31T03:08:16.781Z,74.78
2023-01-31T03:11:04.072Z,74.54
2023-01-31T03:13:44.819Z,74.71
2023-01-31T03:16:41.945Z,74.75
2023-01-31T03:19:18.611Z,74.67
2023-01-31T03:21:54.280Z,74.66
2023-01-31T03:24:27.988Z,74.55
2023-01-31T03:27:02.659Z,74.41
2023-01-31T03:29:40.141Z,74.23
2023-01-31T03:32:23.353Z,74.48
2023-01-31T03:34:55.837Z,74.35
2023-01-31T03:37:34.585Z,74.26
2023-01-31T03:40:18.563Z,74.17
2023-01-31T03:42:53.432Z,74.15
2023-01-31T03:45:32.581Z,73.95
2023-01-31T03:48:14.394Z,73.82
2023-01-31T03:50:51.076Z,73.88
2023-01-31T03:53:27.747Z,73.76
2023-01-31T03:56:02.649Z,73.53
2023-01-31T03:58:38.860Z,73.58
2023-01-31T04:01:13.001Z,73.38
2023-01-31T04:03:46.756Z,73.56
2023-01-31T04:06:18.070Z,73.54
2023-01-31T04:08:49.154Z,73.10
2023-01-31T04:11:25.692Z,73.51
2023-01-31T04:13:56.942Z,73.49
2023-01-31T04:16:27.977Z,73.07
2023-01-31T04:18:59.265Z,73.41
2023-01-31T04:21:30.277Z,73.13
2023-01-31T04:24:01.165Z,73.08
2023-01-31T04:26:32.293Z,72.92
2023-01-31T04:29:03.648Z,73.08
2023-01-31T04:31:34.769Z,73.03
2023-01-31T04:34:06.938Z,72.76
2023-01-31T04:36:37.921Z,72.90
2023-01-31T04:39:08.799Z,72.84
2023-01-31T04:41:39.775Z,73.07
2023-01-31T04:44:11.010Z,72.53
2023-01-31T04:46:42.036Z,72.56
2023-01-31T04:49:12.995Z,72.69
2023-01-31T04:51:44.195Z,72.45
2023-01-31T04:54:15.676Z,72.80
2023-01-31T04:56:47.090Z,72.40
2023-01-31T04:59:18.019Z,72.41
2023-01-31T05:01:48.965Z,72.32
2023-01-31T05:04:22.237Z,72.24
2023-01-31T05:06:53.242Z,72.33
2023-01-31T05:09:25.119Z,72.43
2023-01-31T05:11:56.069Z,72.29
2023-01-31T05:14:27.529Z,72.17
2023-01-31T05:16:59.496Z,72.35
2023-01-31T05:19:30.464Z,72.25
2023-01-31T05:22:01.467Z,72.46
2023-01-31T05:24:34.387Z,72.33
2023-01-31T05:27:05.998Z,72.18
2023-01-31T05:29:37.696Z,72.13
2023-01-31T05:32:10.075Z,72.11
2023-01-31T05:34:41.686Z,72.19
2023-01-31T05:37:13.138Z,71.96
2023-01-31T05:39:45.020Z,71.97
2023-01-31T05:42:15.982Z,72.21
2023-01-31T05:44:46.984Z,72.15
2023-01-31T05:47:19.337Z,72.03
2023-01-31T05:49:51.226Z,71.81
2023-01-31T05:52:22.651Z,72.03
2023-01-31T05:54:53.929Z,71.70
2023-01-31T05:57:25.412Z,71.61
2023-01-31T05:59:56.429Z,71.63
2023-01-31T06:02:27.738Z,71.75
2023-01-31T06:05:01.989Z,71.67
2023-01-31T06:07:33.271Z,71.55
2023-01-31T06:10:05.071Z,71.54
2023-01-31T06:12:36.699Z,71.68
2023-01-31T06:15:09.656Z,71.54
2023-01-31T06:17:40.632Z,71.44
2023-01-31T06:20:13.182Z,71.58
2023-01-31T06:22:44.479Z,71.60
2023-01-31T06:25:15.550Z,71.36
2023-01-31T06:27:46.758Z,71.33
2023-01-31T06:30:18.334Z,71.33
2023-01-31T06:32:49.265Z,71.41
2023-01-31T06:35:21.323Z,71.53
2023-01-31T06:37:52.759Z,71.37
2023-01-31T06:40:23.825Z,71.37
2023-01-31T06:42:55.319Z,71.57
2023-01-31T06:45:26.807Z,71.22
2023-01-31T06:47:57.755Z,71.27
2023-01-31T06:50:28.665Z,71.15
2023-01-31T06:53:00.282Z,71.14
2023-01-31T06:55:31.497Z,71.05
2023-01-31T06:58:02.815Z,70.88
2023-01-31T07:00:33.887Z,71.21
2023-01-31T07:03:04.910Z,70.91
2023-01-31T07:05:36.130Z,70.92
2023-01-31T07:08:12.579Z,70.86
2023-01-31T07:10:43.864Z,70.77
2023-01-31T07:13:20.056Z,70.85
2023-01-31T07:15:51.025Z,70.81
2023-01-31T07:18:22.051Z,70.73
2023-01-31T07:20:53.197Z,70.58
2023-01-31T07:23:24.938Z,70.38
2023-01-31T07:25:56.044Z,70.64
2023-01-31T07:28:28.304Z,70.51
2023-01-31T07:31:04.715Z,70.37
2023-01-31T07:33:35.938Z,70.51
2023-01-31T07:36:10.012Z,70.58
2023-01-31T07:38:41.431Z,70.16
2023-01-31T07:41:13.192Z,70.38
2023-01-31T07:43:44.128Z,70.19
2023-01-31T07:46:15.209Z,70.29
2023-01-31T07:48:46.217Z,70.29
2023-01-31T07:51:17.162Z,70.16
2023-01-31T07:53:49.112Z,70.09
2023-01-31T07:56:22.091Z,69.96
2023-01-31T07:58:53.438Z,69.91
2023-01-31T08:01:43.765Z,69.56
2023-01-31T08:04:21.483Z,69.58
2023-01-31T08:06:56.952Z,69.29
2023-01-31T08:09:27.985Z,69.04
2023-01-31T08:11:58.884Z,68.82
2023-01-31T08:14:31.040Z,68.89
2023-01-31T08:17:02.064Z,69.04
2023-01-31T08:19:34.385Z,68.81
2023-01-31T08:22:05.937Z,68.65
2023-01-31T08:24:36.871Z,68.53
2023-01-31T08:27:07.858Z,68.43
2023-01-31T08:29:38.790Z,68.25
2023-01-31T08:32:09.950Z,68.37
2023-01-31T08:34:40.896Z,68.32
2023-01-31T08:37:11.835Z,68.30
2023-01-31T08:39:44.444Z,68.27
2023-01-31T08:42:15.520Z,68.01
2023-01-31T08:44:46.967Z,67.82
2023-01-31T08:47:17.960Z,67.47
2023-01-31T08:49:48.994Z,67.76
2023-01-31T08:52:20.180Z,67.77
2023-01-31T08:54:51.862Z,67.84
2023-01-31T08:57:22.830Z,67.49
2023-01-31T08:59:54.100Z,67.21
2023-01-31T09:02:25.731Z,66.93
2023-01-31T09:04:59.182Z,66.82
2023-01-31T09:07:31.205Z,66.61
2023-01-31T09:10:03.451Z,66.42
2023-01-31T09:12:36.606Z,66.38
2023-01-31T09:24:26.652Z,65.63
2023-01-31T09:26:57.648Z,65.47
2023-01-31T09:29:30.786Z,65.38
2023-01-31T09:32:03.133Z,65.46
2023-01-31T09:34:37.191Z,65.46
2023-01-31T09:37:10.327Z,65.51
2023-01-31T09:39:45.271Z,65.42
2023-01-31T09:42:24.823Z,65.57
2023-01-31T09:45:03.701Z,65.53
2023-01-31T09:47:38.762Z,65.31
2023-01-31T09:50:14.112Z,65.64
2023-01-31T09:52:45.020Z,65.56
2023-01-31T09:55:24.378Z,65.37
2023-01-31T09:58:07.183Z,65.55
2023-01-31T10:00:48.455Z,65.41
2023-01-31T10:03:52.197Z,65.68
2023-01-31T10:06:28.177Z,65.40
2023-01-31T10:09:04.396Z,65.22
2023-01-31T10:11:42.991Z,65.07
2023-01-31T10:14:34.879Z,64.79
2023-01-31T10:17:12.977Z,64.35
2023-01-31T10:19:50.723Z,64.36
2023-01-31T10:22:27.852Z,64.29
2023-01-31T10:25:03.943Z,64.34
2023-01-31T10:27:45.298Z,64.40
2023-01-31T10:30:22.820Z,64.22
2023-01-31T10:33:00.538Z,63.95
2023-01-31T10:35:37.652Z,64.06
2023-01-31T10:38:16.672Z,63.97
2023-01-31T10:40:52.672Z,64.06
2023-01-31T10:43:30.830Z,63.82
2023-01-31T10:46:03.789Z,63.74
2023-01-31T10:48:34.810Z,63.67
2023-01-31T10:51:21.674Z,63.42
2023-01-31T10:54:07.554Z,63.50
2023-01-31T10:56:43.251Z,63.51
2023-01-31T10:59:24.841Z,63.18
2023-01-31T11:01:56.307Z,63.24
2023-01-31T11:04:33.311Z,63.02
2023-01-31T11:07:06.612Z,63.12
2023-01-31T11:09:42.336Z,63.09
2023-01-31T11:12:14.300Z,62.74
2023-01-31T11:14:45.557Z,62.67
2023-01-31T11:17:23.152Z,62.67
2023-01-31T11:19:58.946Z,62.32
2023-01-31T11:22:33.529Z,62.04
2023-01-31T11:25:05.801Z,62.06
2023-01-31T11:27:43.391Z,62.29
2023-01-31T11:30:27.242Z,62.09
2023-01-31T11:32:59.057Z,62.19
2023-01-31T11:35:32.594Z,62.23
2023-01-31T11:38:20.556Z,62.21
2023-01-31T11:40:51.691Z,61.80
2023-01-31T11:43:32.202Z,61.95
2023-01-31T11:46:05.228Z,61.77
2023-01-31T11:48:43.526Z,61.76
2023-01-31T11:51:28.032Z,61.71
2023-01-31T11:53:59.339Z,61.53
2023-01-31T11:56:35.775Z,61.47
2023-01-31T11:59:14.904Z,61.16
2023-01-31T12:01:51.007Z,61.17
2023-01-31T12:04:27.443Z,61.12
2023-01-31T12:07:22.425Z,61.45
2023-01-31T12:09:59.647Z,61.66
2023-01-31T12:12:37.130Z,61.43
2023-01-31T12:15:17.527Z,61.42
2023-01-31T12:17:51.871Z,61.51
2023-01-31T12:20:34.425Z,61.32
2023-01-31T12:23:14.086Z,61.14
2023-01-31T12:26:01.948Z,61.05
2023-01-31T12:28:47.392Z,60.97
2023-01-31T12:31:40.874Z,60.87
2023-01-31T12:34:31.925Z,60.71
2023-01-31T12:37:28.398Z,60.55
2023-01-31T12:40:24.726Z,60.63
2023-01-31T12:43:02.636Z,60.52
2023-01-31T12:45:53.418Z,60.46
2023-01-31T12:48:41.049Z,60.01
2023-01-31T12:51:27.714Z,60.00
2023-01-31T12:54:11.849Z,59.91
2023-01-31T12:57:08.496Z,59.82
2023-01-31T12:59:56.201Z,59.53
2023-01-31T13:02:38.993Z,59.37
2023-01-31T13:05:24.701Z,59.36
2023-01-31T13:08:02.941Z,59.20
2023-01-31T13:10:40.587Z,59.24
2023-01-31T13:13:18.457Z,59.06
2023-01-31T13:15:53.023Z,59.20
2023-01-31T13:18:25.531Z,59.06
2023-01-31T13:21:00.419Z,58.95
2023-01-31T13:23:35.866Z,58.98
2023-01-31T13:26:12.337Z,58.83
2023-01-31T13:28:49.866Z,58.88
2023-01-31T13:31:26.241Z,58.90
2023-01-31T13:34:03.728Z,59.13
2023-01-31T13:36:39.043Z,58.88
2023-01-31T13:39:16.760Z,58.82
2023-01-31T13:41:47.707Z,58.87
2023-01-31T13:44:20.882Z,59.15
2023-01-31T13:46:59.321Z,59.19
2023-01-31T13:49:34.852Z,59.23
2023-01-31T13:52:12.057Z,58.91
2023-01-31T13:54:49.099Z,59.04
2023-01-31T13:57:29.829Z,58.71
2023-01-31T14:00:10.303Z,58.81
2023-01-31T14:02:41.316Z,58.85
2023-01-31T14:05:50.761Z,58.89
2023-01-31T14:08:59.197Z,58.84
2023-01-31T14:11:44.409Z,58.89
2023-01-31T14:14:39.338Z,58.74
2023-01-31T14:17:14.008Z,58.49
2023-01-31T14:20:06.229Z,58.60
2023-01-31T14:22:40.331Z,58.42
2023-01-31T14:25:38.306Z,58.20
2023-01-31T14:28:13.329Z,58.64
2023-01-31T14:30:47.734Z,58.33
2023-01-31T14:33:35.289Z,58.67
2023-01-31T14:36:42.116Z,58.90
2023-01-31T14:39:57.122Z,58.73
2023-01-31T14:42:54.061Z,58.68
2023-01-31T14:45:58.022Z,58.81
2023-01-31T14:48:57.879Z,58.58
2023-01-31T14:51:45.900Z,58.70
2023-01-31T14:54:35.698Z,58.88
2023-01-31T14:57:23.207Z,59.11
2023-01-31T15:00:00.121Z,59.05
2023-01-31T15:02:47.779Z,59.25
2023-01-31T15:05:23.617Z,59.21
2023-01-31T15:08:07.578Z,59.33
2023-01-31T15:11:06.491Z,59.28
2023-01-31T15:13:49.049Z,59.22
2023-01-31T15:16:26.897Z,59.14
2023-01-31T15:19:07.463Z,59.19
2023-01-31T15:21:43.388Z,59.17
2023-01-31T15:24:20.903Z,59.34
2023-01-31T15:26:53.632Z,59.28
2023-01-31T15:29:28.811Z,59.37
2023-01-31T15:32:00.258Z,59.37
2023-01-31T15:34:36.142Z,59.51
2023-01-31T15:37:18.073Z,59.32
2023-01-31T15:39:56.387Z,59.54
2023-01-31T15:42:30.004Z,59.52
2023-01-31T15:45:21.124Z,59.78
2023-01-31T15:48:04.049Z,59.87
2023-01-31T15:50:36.645Z,59.81
2023-01-31T15:53:15.127Z,59.93
2023-01-31T15:55:48.957Z,59.96
2023-01-31T15:58:23.566Z,60.17
2023-01-31T16:00:56.900Z,60.27
2023-01-31T16:03:30.787Z,60.41
2023-01-31T16:06:04.062Z,60.29
2023-01-31T16:08:38.379Z,60.59
2023-01-31T16:11:11.298Z,60.67
2023-01-31T16:13:44.677Z,60.53
2023-01-31T16:16:17.085Z,60.63
2023-01-31T16:18:52.333Z,60.29
2023-01-31T16:21:31.622Z,60.82
2023-01-31T16:24:15.229Z,60.66
2023-01-31T16:26:55.851Z,60.49
2023-01-31T16:29:34.693Z,61.06
2023-01-31T16:32:16.414Z,61.09
2023-01-31T16:34:53.202Z,61.35
2023-01-31T16:37:34.706Z,61.16
2023-01-31T16:40:19.534Z,61.60
2023-01-31T16:42:50.942Z,61.51
2023-01-31T16:45:34.631Z,61.41
2023-01-31T16:48:29.328Z,62.04
2023-01-31T16:51:02.523Z,62.23
2023-01-31T16:53:40.070Z,62.10
2023-01-31T16:56:25.704Z,62.02
2023-01-31T16:58:56.612Z,62.14
2023-01-31T17:01:31.713Z,62.01
2023-01-31T17:04:06.002Z,62.49
2023-01-31T17:06:37.763Z,62.67
2023-01-31T17:09:15.873Z,62.47
2023-01-31T17:11:47.213Z,62.95
2023-01-31T17:14:18.405Z,62.61
2023-01-31T17:16:53.636Z,62.61
2023-01-31T17:19:24.884Z,62.63
2023-01-31T17:21:56.312Z,62.80
2023-01-31T17:24:27.418Z,62.89
2023-01-31T17:26:58.601Z,62.89
2023-01-31T17:29:29.597Z,63.05
2023-01-31T17:32:01.604Z,63.23
2023-01-31T17:34:32.677Z,63.06
2023-01-31T17:37:03.682Z,62.92
2023-01-31T17:39:35.380Z,63.10
2023-01-31T17:42:07.131Z,62.94
2023-01-31T17:44:40.541Z,63.00
2023-01-31T17:47:11.641Z,63.26
2023-01-31T17:49:44.000Z,63.11
2023-01-31T17:52:16.081Z,62.90
2023-01-31T17:54:47.490Z,62.94
2023-01-31T17:57:18.572Z,63.17
2023-01-31T17:59:49.518Z,63.21
2023-01-31T18:02:20.434Z,63.08
2023-01-31T18:04:51.437Z,63.02
2023-01-31T18:07:22.837Z,63.33
2023-01-31T18:09:54.563Z,63.29
2023-01-31T18:12:25.554Z,63.40
2023-01-31T18:14:56.517Z,63.50
2023-01-31T18:17:27.769Z,63.76
2023-01-31T18:19:58.692Z,63.52
2023-01-31T18:22:29.783Z,63.78
2023-01-31T18:25:00.729Z,63.87
2023-01-31T18:27:31.683Z,63.62
2023-01-31T18:30:02.638Z,64.08
2023-01-31T18:32:34.368Z,64.11
2023-01-31T18:35:05.595Z,64.26
2023-01-31T18:37:38.775Z,64.19
2023-01-31T18:40:12.354Z,64.34
2023-01-31T18:42:43.893Z,64.66
2023-01-31T18:45:15.162Z,64.64
2023-01-31T18:47:46.087Z,64.98
2023-01-31T18:50:18.081Z,65.16
2023-01-31T18:52:49.349Z,64.96
2023-01-31T18:55:20.774Z,65.21
2023-01-31T18:57:52.135Z,65.55
2023-01-31T19:00:24.789Z,65.76
2023-01-31T19:02:56.985Z,65.39
2023-01-31T19:05:28.136Z,65.73
2023-01-31T19:07:59.146Z,65.94
2023-01-31T19:10:30.221Z,65.98
2023-01-31T19:13:01.470Z,66.47
2023-01-31T19:15:32.810Z,66.57
2023-01-31T19:18:03.808Z,66.49
2023-01-31T19:20:34.798Z,66.76
2023-01-31T19:23:05.789Z,66.56
2023-01-31T19:25:40.471Z,66.83
2023-01-31T19:28:11.348Z,66.73
2023-01-31T19:30:42.289Z,66.84
2023-01-31T19:33:13.393Z,67.18
2023-01-31T19:35:44.667Z,67.49
2023-01-31T19:38:15.938Z,67.66
2023-01-31T19:40:49.442Z,67.61
2023-01-31T19:43:20.654Z,67.76
2023-01-31T19:45:52.239Z,67.76
2023-01-31T19:48:23.465Z,68.16
2023-01-31T19:50:54.719Z,67.99
2023-01-31T19:53:27.036Z,68.37
2023-01-31T19:55:58.304Z,68.44
2023-01-31T19:58:32.420Z,68.58
2023-01-31T20:01:06.050Z,68.76
2023-01-31T20:03:38.032Z,68.82
2023-01-31T20:06:11.296Z,68.96
2023-01-31T20:08:42.947Z,69.12
2023-01-31T20:11:14.114Z,68.89
2023-01-31T20:13:45.329Z,69.09
2023-01-31T20:16:16.938Z,69.06
2023-01-31T20:18:48.855Z,68.99
2023-01-31T20:21:21.840Z,69.27
2023-01-31T20:23:53.078Z,69.17
2023-01-31T20:26:28.174Z,69.12
2023-01-31T20:28:59.725Z,69.33
2023-01-31T20:31:30.687Z,69.63
2023-01-31T20:34:01.801Z,69.51
2023-01-31T20:36:32.965Z,69.78
2023-01-31T20:39:07.797Z,69.91
2023-01-31T20:41:38.928Z,69.59
2023-01-31T20:44:10.101Z,69.89
2023-01-31T20:46:41.525Z,70.10
2023-01-31T20:49:13.894Z,70.23
2023-01-31T20:51:45.010Z,70.03
2023-01-31T20:54:16.254Z,70.08
2023-01-31T20:56:47.398Z,70.21
2023-01-31T20:59:18.959Z,70.16
2023-01-31T21:01:50.415Z,70.25
2023-01-31T21:04:22.158Z,70.61
2023-01-31T21:06:53.200Z,70.53
2023-01-31T21:09:24.205Z,70.78
2023-01-31T21:11:56.039Z,70.66
2023-01-31T21:14:27.157Z,70.78
2023-01-31T21:16:58.199Z,70.83
2023-01-31T21:19:29.577Z,70.93
2023-01-31T21:22:00.761Z,70.74
2023-01-31T21:24:33.078Z,70.88
2023-01-31T21:27:04.354Z,71.11
2023-01-31T21:29:35.369Z,70.80
2023-01-31T21:32:07.390Z,70.89
2023-01-31T21:34:40.885Z,71.08
2023-01-31T21:37:12.992Z,71.37
2023-01-31T21:39:44.136Z,71.32
2023-01-31T21:42:19.715Z,70.97
2023-01-31T21:44:51.026Z,71.21
2023-01-31T21:47:22.095Z,71.34
2023-01-31T21:49:53.135Z,71.43
2023-01-31T21:52:24.355Z,71.57
2023-01-31T21:54:55.613Z,71.30
2023-01-31T21:57:26.640Z,71.58
2023-01-31T21:59:57.611Z,71.67
2023-01-31T22:02:29.085Z,71.68
2023-01-31T22:05:00.905Z,71.32
2023-01-31T22:07:32.158Z,71.22
2023-01-31T22:10:03.206Z,71.01
2023-01-31T22:12:34.442Z,71.03
2023-01-31T22:15:06.228Z,71.22
2023-01-31T22:17:37.668Z,70.90
2023-01-31T22:20:11.935Z,71.55
2023-01-31T22:22:43.240Z,71.33
2023-01-31T22:25:14.818Z,71.25
2023-01-31T22:27:45.713Z,71.60
2023-01-31T22:30:18.801Z,71.53
2023-01-31T22:32:49.747Z,71.68
2023-01-31T22:35:20.758Z,71.89
2023-01-31T22:37:51.839Z,71.84
2023-01-31T22:40:23.345Z,72.25
2023-01-31T22:42:54.601Z,72.01
2023-01-31T22:45:25.577Z,72.48
2023-01-31T22:47:56.515Z,72.36
2023-01-31T22:50:27.513Z,72.43
2023-01-31T22:52:58.518Z,72.64
2023-01-31T22:55:29.541Z,72.80
2023-01-31T22:58:00.594Z,72.81
2023-01-31T23:00:31.506Z,72.87
2023-01-31T23:03:02.780Z,72.65
2023-01-31T23:05:34.018Z,73.10
2023-01-31T23:08:04.955Z,73.33
2023-01-31T23:10:35.739Z,73.24
2023-01-31T23:13:07.366Z,73.10
2023-01-31T23:15:38.690Z,73.08
2023-01-31T23:18:09.694Z,73.32
2023-01-31T23:20:40.459Z,73.25
2023-01-31T23:23:11.261Z,73.73
2023-01-31T23:25:42.068Z,73.54
2023-01-31T23:28:12.935Z,73.52
2023-01-31T23:30:46.872Z,73.94
2023-01-31T23:33:17.695Z,73.56
2023-01-31T23:35:48.712Z,73.70
2023-01-31T23:38:20.018Z,73.62
2023-01-31T23:40:55.273Z,73.88
2023-01-31T23:43:25.922Z,74.09
2023-01-31T23:45:56.705Z,73.92
2023-01-31T23:48:27.500Z,74.07
2023-01-31T23:51:04.964Z,73.78
2023-01-31T23:53:35.742Z,74.27
2023-01-31T23:56:07.314Z,74.13
2023-01-31T23:58:38.105Z,74.34
